createdAt,value
2023-04-09T00:01:55.716Z,1.88
2023-04-09T00:06:57.342Z,1.77
2023-04-09T00:11:59.140Z,1.71
2023-04-09T00:17:01.461Z,1.71
2023-04-09T00:22:03.064Z,1.58
2023-04-09T00:27:04.698Z,1.57
2023-04-09T00:32:06.762Z,1.65
2023-04-09T00:37:08.569Z,1.72
2023-04-09T00:42:10.240Z,1.64
2023-04-09T00:47:12.052Z,1.48
2023-04-09T00:52:13.792Z,1.38
2023-04-09T00:57:15.985Z,1.39
2023-04-09T01:02:17.708Z,1.50
2023-04-09T01:07:54.965Z,1.51
2023-04-09T01:13:06.294Z,1.56
2023-04-09T01:18:41.179Z,1.55
2023-04-09T01:23:54.940Z,1.51
2023-04-09T01:29:00.619Z,1.46
2023-04-09T01:34:02.739Z,1.55
2023-04-09T01:39:05.207Z,1.50
2023-04-09T01:44:07.944Z,1.51
2023-04-09T01:49:10.510Z,1.49
2023-04-09T01:54:12.107Z,1.40
2023-04-09T01:59:14.323Z,1.30
2023-04-09T02:04:44.252Z,1.35
2023-04-09T02:09:48.654Z,1.25
2023-04-09T02:14:52.568Z,1.18
2023-04-09T02:19:54.182Z,1.19
2023-04-09T02:24:55.886Z,1.12
2023-04-09T02:29:57.607Z,0.99
2023-04-09T02:34:59.328Z,0.96
2023-04-09T02:40:00.997Z,0.91
2023-04-09T02:45:02.643Z,0.88
2023-04-09T02:50:07.481Z,0.81
2023-04-09T02:55:11.327Z,0.76
2023-04-09T03:00:13.454Z,0.66
2023-04-09T03:05:15.535Z,0.73
2023-04-09T03:10:17.206Z,0.70
2023-04-09T03:15:19.121Z,0.79
2023-04-09T03:20:20.725Z,0.81
2023-04-09T03:25:22.468Z,0.82
2023-04-09T03:30:27.750Z,0.80
2023-04-09T03:35:31.745Z,0.77
2023-04-09T03:40:36.511Z,0.81
2023-04-09T03:45:38.298Z,0.82
2023-04-09T03:50:54.240Z,0.84
2023-04-09T03:56:04.981Z,0.88
2023-04-09T04:01:07.894Z,0.90
2023-04-09T04:06:14.868Z,0.97
2023-04-09T04:11:42.674Z,1.00
2023-04-09T04:16:45.365Z,1.06
2023-04-09T04:21:52.245Z,1.12
2023-04-09T04:26:54.659Z,1.18
2023-04-09T04:31:57.466Z,1.22
2023-04-09T04:37:02.933Z,1.31
2023-04-09T04:42:07.487Z,1.37
2023-04-09T04:47:09.263Z,1.43
2023-04-09T04:52:11.364Z,1.40
2023-04-09T04:57:17.515Z,1.47
2023-04-09T05:02:20.419Z,1.47
2023-04-09T05:07:42.177Z,1.60
2023-04-09T05:12:44.373Z,1.76
2023-04-09T05:17:48.798Z,1.87
2023-04-09T05:22:52.626Z,1.96
2023-04-09T05:28:01.967Z,2.01
2023-04-09T05:33:05.509Z,2.20
2023-04-09T05:38:08.058Z,2.38
2023-04-09T05:43:09.951Z,2.63
2023-04-09T05:48:18.523Z,3.16
2023-04-09T05:53:21.185Z,4.04
2023-04-09T05:58:22.926Z,4.01
2023-04-09T06:03:25.643Z,4.81
2023-04-09T06:08:28.858Z,5.81
2023-04-09T06:13:30.597Z,5.96
2023-04-09T06:18:32.722Z,5.37
2023-04-09T06:23:36.035Z,5.82
2023-04-09T06:28:37.988Z,6.26
2023-04-09T06:33:39.643Z,6.99
2023-04-09T06:38:41.282Z,6.92
2023-04-09T06:43:42.911Z,6.53
2023-04-09T06:48:44.818Z,7.21
2023-04-09T06:53:48.223Z,7.27
2023-04-09T06:58:50.169Z,7.48
2023-04-09T07:03:52.542Z,6.85
2023-04-09T07:08:54.813Z,7.77
2023-04-09T07:13:56.961Z,7.97
2023-04-09T07:18:58.643Z,8.08
2023-04-09T07:24:00.704Z,8.02
2023-04-09T07:29:03.766Z,8.43
2023-04-09T07:34:05.488Z,8.65
2023-04-09T07:39:07.120Z,8.29
2023-04-09T07:44:09.431Z,8.08
2023-04-09T07:49:11.194Z,7.40
2023-04-09T07:54:12.862Z,7.09
2023-04-09T07:59:17.423Z,6.89
2023-04-09T08:04:19.411Z,6.87
2023-04-09T08:09:21.326Z,6.92
2023-04-09T08:14:22.929Z,7.37
2023-04-09T08:19:24.826Z,7.42
2023-04-09T08:24:27.351Z,7.74
2023-04-09T08:29:29.336Z,7.81
2023-04-09T08:34:30.977Z,7.64
2023-04-09T08:39:33.041Z,7.63
2023-04-09T08:44:34.826Z,7.91
2023-04-09T08:49:36.639Z,8.21
2023-04-09T08:54:38.409Z,8.21
2023-04-09T08:59:40.062Z,8.24
2023-04-09T09:04:49.114Z,8.41
2023-04-09T09:09:52.708Z,8.92
2023-04-09T09:14:54.413Z,9.18
2023-04-09T09:19:56.145Z,9.62
2023-04-09T09:24:57.969Z,9.16
2023-04-09T09:29:59.659Z,9.68
2023-04-09T09:35:05.329Z,9.89
2023-04-09T09:40:07.838Z,9.82
2023-04-09T09:45:19.573Z,9.98
2023-04-09T09:50:25.151Z,10.05
2023-04-09T09:55:27.960Z,10.63
2023-04-09T10:00:32.620Z,10.51
2023-04-09T10:05:36.245Z,10.78
2023-04-09T10:10:39.365Z,10.43
2023-04-09T10:15:43.217Z,10.62
2023-04-09T10:20:59.508Z,10.38
2023-04-09T10:26:01.753Z,10.23
2023-04-09T10:31:05.356Z,10.27
2023-04-09T10:36:11.121Z,10.27
2023-04-09T10:41:31.501Z,10.48
2023-04-09T10:46:36.895Z,10.62
2023-04-09T10:51:39.239Z,11.06
2023-04-09T10:56:40.898Z,11.54
2023-04-09T11:01:52.665Z,11.39
2023-04-09T11:06:54.718Z,11.52
2023-04-09T11:11:57.848Z,11.44
2023-04-09T11:16:59.540Z,11.87
2023-04-09T11:22:09.347Z,11.79
2023-04-09T11:27:14.154Z,12.03
2023-04-09T11:32:15.829Z,12.23
2023-04-09T11:37:18.479Z,12.28
2023-04-09T11:42:21.992Z,12.65
2023-04-09T11:47:23.711Z,12.53
2023-04-09T11:52:25.649Z,12.74
2023-04-09T11:57:43.189Z,12.80
2023-04-09T12:02:49.327Z,12.71
2023-04-09T12:07:56.284Z,12.56
2023-04-09T12:13:03.405Z,12.23
2023-04-09T12:18:08.569Z,12.34
2023-04-09T12:23:11.657Z,12.26
2023-04-09T12:28:18.668Z,12.48
2023-04-09T12:33:21.371Z,12.21
2023-04-09T12:38:22.988Z,11.89
2023-04-09T12:43:24.601Z,11.86
2023-04-09T12:48:26.793Z,11.77
2023-04-09T12:53:28.553Z,11.61
2023-04-09T12:58:31.399Z,11.43
2023-04-09T13:03:33.300Z,11.26
2023-04-09T13:08:35.254Z,11.24
2023-04-09T13:13:36.910Z,11.23
2023-04-09T13:18:38.509Z,11.38
2023-04-09T13:23:40.570Z,11.44
2023-04-09T13:28:43.084Z,11.54
2023-04-09T13:33:45.964Z,11.76
2023-04-09T13:38:49.325Z,12.22
2023-04-09T13:43:51.308Z,12.56
2023-04-09T13:48:53.363Z,12.47
2023-04-09T13:53:55.107Z,12.46
2023-04-09T13:58:56.880Z,12.55
2023-04-09T14:03:58.630Z,12.55
2023-04-09T14:09:00.558Z,12.53
2023-04-09T14:14:02.284Z,12.44
2023-04-09T14:19:03.868Z,12.23
2023-04-09T14:24:05.984Z,12.35
2023-04-09T14:29:07.775Z,12.43
2023-04-09T14:34:09.367Z,12.42
2023-04-09T14:39:11.282Z,12.49
2023-04-09T14:44:12.956Z,12.41
2023-04-09T14:49:14.626Z,12.30
2023-04-09T14:54:16.803Z,12.24
2023-04-09T14:59:18.488Z,12.11
2023-04-09T15:04:20.150Z,12.00
2023-04-09T15:09:21.800Z,11.99
2023-04-09T15:14:24.071Z,12.10
2023-04-09T15:19:25.912Z,12.04
2023-04-09T15:24:27.553Z,12.05
2023-04-09T15:29:29.221Z,12.05
2023-04-09T15:34:31.054Z,12.06
2023-04-09T15:39:32.747Z,12.03
2023-04-09T15:44:34.662Z,12.04
2023-04-09T15:49:36.928Z,12.09
2023-04-09T15:54:38.660Z,12.06
2023-04-09T15:59:40.452Z,11.99
2023-04-09T16:04:42.236Z,12.03
2023-04-09T16:09:44.050Z,12.02
2023-04-09T16:14:45.787Z,11.99
2023-04-09T16:19:47.458Z,11.94
2023-04-09T16:24:51.644Z,11.93
2023-04-09T16:29:53.277Z,11.90
2023-04-09T16:34:56.093Z,11.82
2023-04-09T16:39:58.135Z,11.75
2023-04-09T16:45:00.038Z,11.76
2023-04-09T16:50:02.925Z,11.78
2023-04-09T16:55:05.273Z,11.75
2023-04-09T17:00:07.716Z,11.70
2023-04-09T17:05:09.889Z,11.65
2023-04-09T17:10:11.620Z,11.64
2023-04-09T17:15:13.280Z,11.66
2023-04-09T17:20:14.946Z,11.63
2023-04-09T17:25:16.898Z,11.60
2023-04-09T17:30:19.828Z,11.52
2023-04-09T17:35:21.456Z,11.36
2023-04-09T17:40:23.144Z,11.21
2023-04-09T17:45:24.820Z,11.11
2023-04-09T17:50:26.410Z,10.98
2023-04-09T17:55:28.253Z,10.78
2023-04-09T18:00:29.933Z,10.63
2023-04-09T18:05:31.746Z,10.61
2023-04-09T18:10:33.570Z,10.65
2023-04-09T18:15:35.525Z,10.64
2023-04-09T18:20:37.192Z,10.64
2023-04-09T18:25:38.941Z,10.61
2023-04-09T18:30:41.835Z,10.62
2023-04-09T18:35:43.493Z,10.59
2023-04-09T18:40:45.341Z,10.55
2023-04-09T18:45:47.204Z,10.43
2023-04-09T18:50:48.934Z,10.32
2023-04-09T18:55:50.582Z,10.23
2023-04-09T19:00:52.220Z,10.14
2023-04-09T19:05:53.847Z,9.99
2023-04-09T19:10:55.601Z,9.84
2023-04-09T19:15:57.274Z,9.66
2023-04-09T19:20:59.033Z,9.44
2023-04-09T19:26:01.209Z,9.27
2023-04-09T19:31:05.860Z,9.04
2023-04-09T19:36:08.196Z,8.85
2023-04-09T19:41:34.667Z,8.72
2023-04-09T19:46:36.334Z,8.60
2023-04-09T19:51:38.024Z,8.51
2023-04-09T19:56:39.636Z,8.35
2023-04-09T20:01:41.318Z,8.18
2023-04-09T20:06:44.257Z,8.04
2023-04-09T20:11:46.594Z,7.90
2023-04-09T20:16:48.330Z,7.83
2023-04-09T20:21:50.016Z,7.75
2023-04-09T20:26:52.098Z,7.73
2023-04-09T20:31:56.731Z,7.80
2023-04-09T20:37:00.682Z,7.83
2023-04-09T20:42:02.351Z,7.84
2023-04-09T20:47:04.001Z,7.69
2023-04-09T20:52:06.990Z,7.54
2023-04-09T20:57:11.059Z,7.44
2023-04-09T21:02:14.351Z,7.38
2023-04-09T21:07:16.223Z,7.33
2023-04-09T21:12:17.831Z,7.33
2023-04-09T21:17:19.516Z,7.38
2023-04-09T21:22:21.209Z,7.38
2023-04-09T21:27:23.206Z,7.40
2023-04-09T21:32:25.273Z,7.40
2023-04-09T21:37:34.955Z,7.43
2023-04-09T21:42:39.807Z,7.43
2023-04-09T21:47:41.447Z,7.43
2023-04-09T21:52:45.098Z,7.44
2023-04-09T21:57:47.016Z,7.41
2023-04-09T22:02:53.924Z,7.34
2023-04-09T22:07:56.075Z,7.21
2023-04-09T22:12:57.720Z,7.11
2023-04-09T22:17:59.494Z,7.05
2023-04-09T22:23:02.709Z,6.95
2023-04-09T22:28:07.367Z,6.81
2023-04-09T22:33:10.196Z,6.65
2023-04-09T22:38:16.230Z,6.56
2023-04-09T22:43:29.242Z,6.40
2023-04-09T22:48:38.166Z,6.31
2023-04-09T22:53:52.729Z,6.23
2023-04-09T22:58:54.611Z,6.12
2023-04-09T23:03:56.743Z,5.99
2023-04-09T23:08:59.871Z,5.90
2023-04-09T23:14:01.598Z,5.92
2023-04-09T23:19:03.578Z,5.86
2023-04-09T23:24:05.432Z,5.87
2023-04-09T23:29:07.312Z,5.78
2023-04-09T23:34:08.951Z,5.65
2023-04-09T23:39:10.992Z,5.53
2023-04-09T23:44:12.646Z,5.39
2023-04-09T23:49:16.115Z,5.32
2023-04-09T23:54:17.741Z,5.24
2023-04-09T23:59:19.413Z,5.16
